Time;durP1;ratioP1;P1;durP2;ratioP2;P2;SDS_P1;SDS_P2;PMS_P1;PMS_P2;Temp;Humidity;BMP_temperature;BMP_pressure;BME280_temperature;BME280_humidity;BME280_pressure;Samples;Min_cycle;Max_cycle;Signal;HPM_P1;HPM_P2
2023/11/15 00:00:58;;;;;;;1.33;1.13;;;;;;;11.52;100.00;99851.03;5034996;28;20037;-75
2023/11/15 00:03:24;;;;;;;1.23;1.08;;;;;;;10.94;100.00;99744.09;5050680;28;20037;-76
2023/11/15 00:05:49;;;;;;;2.33;2.13;;;;;;;11.47;100.00;99823.97;5050720;28;20082;-74
2023/11/15 00:14:59;;;;;;;9.63;3.30;;;;;;;11.36;100.00;99795.19;5036863;28;20091;-74
2023/11/15 00:17:24;;;;;;;0.90;0.90;;;;;;;11.05;100.00;99770.19;5029418;28;20033;-75
2023/11/15 00:19:51;;;;;;;3.92;3.00;;;;;;;11.15;100.00;99784.97;5030960;28;20049;-76
2023/11/15 00:22:17;;;;;;;3.22;1.58;;;;;;;11.71;100.00;99882.34;5029997;28;20106;-74
2023/11/15 00:24:44;;;;;;;0.77;0.73;;;;;;;11.26;100.00;99808.47;5036494;28;20029;-75
2023/11/15 00:27:13;;;;;;;3.30;1.90;;;;;;;11.64;100.00;99891.19;5046788;28;20024;-76
2023/11/15 00:29:39;;;;;;;1.58;1.48;;;;;;;11.66;100.00;99861.38;5037074;28;20108;-76
2023/11/15 00:32:05;;;;;;;0.75;0.75;;;;;;;11.46;100.00;99845.84;5050270;28;20124;-76
2023/11/15 00:34:30;;;;;;;1.40;1.30;;;;;;;11.59;100.00;99886.88;5048038;28;20043;-76
2023/11/15 00:36:56;;;;;;;2.63;1.95;;;;;;;11.57;100.00;99885.16;5039376;28;20429;-75
2023/11/15 00:39:21;;;;;;;2.25;2.05;;;;;;;11.32;100.00;99818.91;5035225;28;20049;-75
2023/11/15 00:41:47;;;;;;;3.15;2.80;;;;;;;11.51;100.00;99858.94;5026255;28;20353;-75
2023/11/15 00:44:15;;;;;;;2.13;1.90;;;;;;;10.89;100.00;99736.28;5033959;28;20053;-75
2023/11/15 00:50:04;;;;;;;3.40;1.55;;;;;;;11.66;100.00;99881.50;5041327;28;20044;-76
2023/11/15 00:52:30;;;;;;;0.20;0.20;;;;;;;11.77;100.00;99887.50;5035991;28;20548;-75
2023/11/15 00:54:56;;;;;;;3.92;2.17;;;;;;;11.71;100.00;99884.97;5047566;28;20036;-75
2023/11/15 00:57:21;;;;;;;1.20;1.00;;;;;;;11.15;100.00;99798.97;5042049;28;20046;-76
2023/11/15 00:59:53;;;;;;;1.65;1.55;;;;;;;11.22;100.00;99797.13;5048300;28;20349;-76
2023/11/15 01:02:20;;;;;;;8.40;2.25;;;;;;;11.24;100.00;99810.22;5048232;28;20037;-76
2023/11/15 01:04:46;;;;;;;1.40;1.25;;;;;;;11.04;100.00;99763.22;5030370;28;20120;-75
2023/11/15 01:07:12;;;;;;;2.28;2.08;;;;;;;11.65;100.00;99871.91;5028583;28;20044;-74
2023/11/15 01:09:37;;;;;;;1.95;1.45;;;;;;;11.25;100.00;99793.59;5039335;28;20034;-74
2023/11/15 01:12:04;;;;;;;3.35;2.42;;;;;;;11.65;100.00;99861.38;5028498;28;20029;-75
2023/11/15 01:14:36;;;;;;;2.92;1.42;;;;;;;11.06;100.00;99766.72;5031812;28;20373;-75
2023/11/15 01:17:10;;;;;;;0.30;0.30;;;;;;;11.45;100.00;99824.84;5029208;28;20140;-74
2023/11/15 01:19:35;;;;;;;1.45;1.17;;;;;;;11.55;100.00;99814.22;5029041;28;20409;-75
2023/11/15 01:22:51;;;;;;;0.65;0.57;;;;;;;11.72;100.00;99823.63;5030050;28;20037;-74
2023/11/15 01:29:25;;;;;;;1.15;1.08;;;;;;;11.75;100.00;99797.28;5035316;28;20091;-76
2023/11/15 01:31:50;;;;;;;1.40;1.30;;;;;;;11.18;100.00;99701.75;5038524;28;20125;-75
2023/11/15 01:34:18;;;;;;;0.40;0.40;;;;;;;11.31;100.00;99720.00;5034878;28;20046;-76
2023/11/15 01:36:46;;;;;;;1.17;0.95;;;;;;;11.09;100.00;99683.50;5020564;28;20028;-74
2023/11/15 01:39:16;;;;;;;5.55;5.03;;;;;;;11.31;100.00;99702.47;5034277;28;20053;-76
2023/11/15 01:41:47;;;;;;;1.33;1.23;;;;;;;11.35;100.00;99687.53;5018588;28;20030;-75
2023/11/15 01:47:34;;;;;;;3.65;1.90;;;;;;;11.22;100.00;99667.59;5037080;28;20495;-75
2023/11/15 01:50:02;;;;;;;1.40;1.30;;;;;;;11.83;100.00;99753.38;5049864;28;20037;-76
2023/11/15 01:52:28;;;;;;;1.80;1.70;;;;;;;11.92;100.00;99749.75;5054532;28;20037;-75
2023/11/15 01:54:58;;;;;;;1.27;1.05;;;;;;;11.39;100.00;99665.56;5043024;28;20043;-76
2023/11/15 01:57:24;;;;;;;1.63;1.52;;;;;;;11.74;100.00;99771.91;5035075;28;20082;-76
2023/11/15 01:59:51;;;;;;;2.28;2.05;;;;;;;11.25;100.00;99663.16;5024037;28;20025;-76
2023/11/15 02:02:16;;;;;;;1.30;0.85;;;;;;;11.32;100.00;99667.44;5049473;28;20427;-76
2023/11/15 02:04:42;;;;;;;1.55;1.45;;;;;;;11.28;100.00;99647.34;5041799;28;20041;-75
2023/11/15 02:07:09;;;;;;;2.45;2.25;;;;;;;11.40;100.00;99662.94;5028749;28;20358;-76
2023/11/15 02:09:37;;;;;;;0.30;0.30;;;;;;;11.20;100.00;99628.22;5015651;28;20545;-76
2023/11/15 02:12:04;;;;;;;2.65;1.92;;;;;;;12.00;100.00;99759.25;5029107;28;20035;-77
2023/11/15 02:14:30;;;;;;;1.40;0.77;;;;;;;11.98;100.00;99757.53;5024150;28;20445;-76
2023/11/15 02:16:56;;;;;;;0.63;0.55;;;;;;;12.08;100.00;99772.28;5050709;28;20119;-75
2023/11/15 02:19:21;;;;;;;1.30;1.20;;;;;;;11.91;100.00;99761.16;5033285;28;20037;-76
2023/11/15 02:21:47;;;;;;;2.45;1.98;;;;;;;11.32;100.00;99664.78;5032894;28;20038;-75
2023/11/15 02:24:13;;;;;;;2.17;1.98;;;;;;;11.34;100.00;99663.03;5043890;28;20047;-74
2023/11/15 02:27:14;;;;;;;6.65;1.67;;;;;;;11.87;100.00;99784.00;5041540;28;20112;-75
2023/11/15 02:29:53;;;;;;;1.05;0.85;;;;;;;11.80;100.00;99780.56;5054258;28;20047;-77
2023/11/15 02:35:43;;;;;;;2.88;0.90;;;;;;;11.71;100.00;99792.97;5032091;28;20125;-75
2023/11/15 02:38:08;;;;;;;0.77;0.73;;;;;;;11.64;100.00;99773.81;5030519;28;20048;-74
2023/11/15 02:40:42;;;;;;;1.70;1.60;;;;;;;11.08;100.00;99679.16;5032867;28;20037;-74
2023/11/15 02:43:07;;;;;;;;;;;;;;;11.82;100.00;99793.66;5047369;28;20055;-76
2023/11/15 02:45:33;;;;;;;0.85;0.85;;;;;;;11.67;100.00;99772.88;5050287;28;20380;-74
2023/11/15 02:48:22;;;;;;;4.50;4.10;;;;;;;11.55;100.00;99772.16;5032795;28;20094;-74
2023/11/15 02:50:48;;;;;;;2.35;1.83;;;;;;;11.08;100.00;99655.53;5030516;28;20033;-75
2023/11/15 02:53:14;;;;;;;1.33;1.15;;;;;;;11.36;100.00;99682.25;5044600;28;20069;-77
2023/11/15 02:55:40;;;;;;;0.50;0.50;;;;;;;11.95;100.00;99762.84;5033190;28;20095;-76
2023/11/15 02:58:06;;;;;;;1.73;1.55;;;;;;;11.83;100.00;99735.81;5010150;28;20128;-74
2023/11/15 03:00:31;;;;;;;2.42;1.13;;;;;;;11.98;100.00;99763.66;5032192;28;20440;-75
2023/11/15 03:03:08;;;;;;;1.15;0.93;;;;;;;11.91;100.00;99740.97;5030037;28;20334;-75
2023/11/15 03:05:33;;;;;;;2.80;2.60;;;;;;;11.77;100.00;99730.66;5031812;28;20494;-74
2023/11/15 03:07:59;;;;;;;2.03;1.88;;;;;;;11.74;100.00;99730.72;5047707;28;20099;-76
2023/11/15 03:10:25;;;;;;;2.97;1.70;;;;;;;11.90;100.00;99748.91;5016225;28;20128;-76
2023/11/15 03:16:37;;;;;;;1.73;1.63;;;;;;;11.87;100.00;99752.47;5029366;28;20044;-74
2023/11/15 03:19:05;;;;;;;2.08;1.48;;;;;;;11.48;100.00;99672.47;5029829;28;20470;-77
2023/11/15 03:21:32;;;;;;;2.08;1.98;;;;;;;11.36;100.00;99666.50;5031864;28;20061;-75
2023/11/15 03:27:19;;;;;;;0.40;0.40;;;;;;;11.18;100.00;99624.75;5034522;28;20052;-74
2023/11/15 03:30:02;;;;;;;0.95;0.93;;;;;;;11.78;100.00;99749.94;5033239;28;20021;-75
2023/11/15 03:32:28;;;;;;;2.38;2.17;;;;;;;11.74;100.00;99720.19;5036339;28;20107;-77
2023/11/15 03:34:54;;;;;;;4.38;2.25;;;;;;;11.28;100.00;99607.09;5052587;28;20052;-76
2023/11/15 03:37:19;;;;;;;2.50;2.30;;;;;;;11.83;100.00;99700.78;5034554;28;20432;-74
2023/11/15 03:39:45;;;;;;;2.53;2.03;;;;;;;11.87;100.00;99697.25;5030531;28;20072;-75
2023/11/15 03:42:12;;;;;;;2.13;1.83;;;;;;;11.83;100.00;99683.25;5012544;28;20041;-75
2023/11/15 03:44:37;;;;;;;1.10;1.02;;;;;;;11.76;100.00;99673.75;5052283;28;20056;-75
2023/11/15 03:47:49;;;;;;;1.40;1.23;;;;;;;11.72;100.00;99673.81;5050379;28;20187;-75
2023/11/15 03:50:52;;;;;;;1.73;1.33;;;;;;;11.63;100.00;99672.19;5047385;28;20376;-75
2023/11/15 04:07:37;;;;;;;0.30;0.30;;;;;;;11.80;100.00;99691.19;5031294;28;20040;-76
2023/11/15 04:10:03;;;;;;;5.15;1.85;;;;;;;11.61;100.00;99655.56;5027948;28;20046;-74
2023/11/15 04:12:28;;;;;;;2.15;1.95;;;;;;;11.03;100.00;99561.97;5031635;28;20030;-75
2023/11/15 04:14:54;;;;;;;1.27;0.90;;;;;;;11.09;100.00;99561.88;5039863;28;20009;-77
2023/11/15 04:20:42;;;;;;;1.55;1.27;;;;;;;11.44;100.00;99616.44;5033945;28;20175;-76
2023/11/15 04:23:58;;;;;;;2.50;2.30;;;;;;;11.69;100.00;99650.22;5026537;28;20084;-77
2023/11/15 04:26:52;;;;;;;3.75;2.72;;;;;;;11.65;100.00;99646.75;5030458;28;20029;-76
2023/11/15 04:29:47;;;;;;;0.20;0.20;;;;;;;11.44;100.00;99647.97;5038984;28;20477;-77
2023/11/15 04:32:13;;;;;;;2.38;2.13;;;;;;;11.08;100.00;99591.66;5027733;28;20053;-74
2023/11/15 04:34:38;;;;;;;6.38;1.80;;;;;;;10.95;100.00;99543.72;5027847;28;20037;-76
2023/11/15 04:37:04;;;;;;;2.05;1.67;;;;;;;11.51;100.00;99646.13;5027560;28;20398;-75
2023/11/15 04:39:30;;;;;;;5.43;1.27;;;;;;;11.66;100.00;99658.13;5033775;28;20461;-75
2023/11/15 04:41:55;;;;;;;2.88;2.45;;;;;;;11.14;100.00;99571.44;5019115;28;20116;-74
2023/11/15 04:44:23;;;;;;;0.20;0.20;;;;;;;11.31;100.00;99634.19;5028833;28;20051;-74
2023/11/15 04:46:59;;;;;;;1.63;1.52;;;;;;;11.34;100.00;99634.13;5039458;28;20042;-75
2023/11/15 04:53:05;;;;;;;2.13;2.03;;;;;;;11.53;100.00;99616.31;5037609;28;20180;-76
2023/11/15 04:55:31;;;;;;;2.45;2.25;;;;;;;10.88;100.00;99521.94;5029688;28;20037;-76
2023/11/15 04:57:57;;;;;;;2.40;1.38;;;;;;;11.55;100.00;99632.91;5025923;28;20052;-76
2023/11/15 05:00:22;;;;;;;1.35;1.20;;;;;;;11.46;100.00;99601.53;5024817;28;20060;-75
2023/11/15 05:02:48;;;;;;;0.55;0.55;;;;;;;11.49;100.00;99601.47;5027668;28;20025;-75
2023/11/15 05:05:14;;;;;;;1.83;1.60;;;;;;;11.55;100.00;99609.28;5024880;28;20080;-75
2023/11/15 05:07:40;;;;;;;0.40;0.40;;;;;;;11.55;100.00;99604.00;5036369;28;20057;-75
2023/11/15 05:10:32;;;;;;;32.25;6.32;;;;;;;11.60;100.00;99609.19;5044571;28;20068;-77
2023/11/15 05:12:59;;;;;;;2.67;1.90;;;;;;;11.26;100.00;99553.72;5027276;28;20033;-76
2023/11/15 05:15:52;;;;;;;0.90;0.90;;;;;;;11.55;100.00;99597.91;5030681;28;20044;-74
2023/11/15 05:18:19;;;;;;;1.73;0.82;;;;;;;11.16;100.00;99534.63;5029157;28;20036;-76
2023/11/15 05:21:20;;;;;;;6.72;1.60;;;;;;;11.50;100.00;99594.50;5030351;28;20039;-75
2023/11/15 05:24:20;;;;;;;1.40;1.27;;;;;;;11.60;100.00;99590.78;5027064;28;20033;-75
2023/11/15 05:26:55;;;;;;;2.47;1.48;;;;;;;11.60;100.00;99580.28;5030767;28;20042;-75
2023/11/15 05:29:58;;;;;;;0.47;0.47;;;;;;;11.71;100.00;99598.50;5033161;28;20204;-74
2023/11/15 05:32:23;;;;;;;0.80;0.80;;;;;;;10.99;100.00;99513.91;5013178;28;20393;-77
2023/11/15 05:34:49;;;;;;;1.23;1.13;;;;;;;11.55;100.00;99600.53;5029827;28;20145;-74
2023/11/15 05:37:14;;;;;;;3.30;1.55;;;;;;;11.45;100.00;99584.06;5034110;28;20041;-75
2023/11/15 05:40:18;;;;;;;1.45;0.93;;;;;;;11.64;100.00;99608.25;5030891;28;20330;-77
2023/11/15 05:42:44;;;;;;;0.45;0.45;;;;;;;11.10;100.00;99496.22;5021611;28;20561;-77
2023/11/15 05:45:10;;;;;;;0.93;0.63;;;;;;;11.70;100.00;99608.13;5031290;28;20374;-78
2023/11/15 05:48:05;;;;;;;0.50;0.50;;;;;;;11.73;100.00;99601.94;5025491;28;20040;-76
2023/11/15 05:50:32;;;;;;;0.45;0.32;;;;;;;11.77;100.00;99611.50;5024527;28;20033;-76
2023/11/15 05:52:57;;;;;;;1.58;1.17;;;;;;;11.77;100.00;99617.63;5018823;28;20076;-78
2023/11/15 05:55:23;;;;;;;0.73;0.73;;;;;;;11.25;100.00;99521.34;5048921;28;20069;-76
2023/11/15 06:04:56;;;;;;;0.77;0.77;;;;;;;11.98;100.00;99641.84;5046775;28;20499;-76
2023/11/15 06:07:25;;;;;;;1.63;0.73;;;;;;;12.00;100.00;99645.31;5045614;28;20041;-78
2023/11/15 06:09:51;;;;;;;1.15;0.95;;;;;;;11.87;100.00;99647.31;5017682;28;20037;-77
2023/11/15 06:12:19;;;;;;;1.55;0.98;;;;;;;11.62;100.00;99608.28;5017030;28;20033;-77
2023/11/15 06:18:07;;;;;;;1.38;0.82;;;;;;;11.77;100.00;99648.31;5056395;28;20044;-79
2023/11/15 06:20:35;;;;;;;0.20;0.20;;;;;;;11.81;100.00;99669.25;5055306;28;20068;-79
2023/11/15 06:23:00;;;;;;;6.18;4.22;;;;;;;11.76;100.00;99671.09;5054686;28;20044;-79
2023/11/15 06:25:27;;;;;;;0.40;0.40;;;;;;;11.26;100.00;99594.00;5034953;28;20037;-78
2023/11/15 06:31:14;;;;;;;1.08;0.98;;;;;;;11.71;100.00;99687.84;5055485;28;20615;-80
2023/11/15 06:37:23;;;;;;;1.67;1.50;;;;;;;11.38;100.00;99598.19;5053440;28;20082;-81
2023/11/15 06:40:08;;;;;;;1.58;1.40;;;;;;;11.41;100.00;99587.63;5029886;28;20090;-82
2023/11/15 06:45:57;;;;;;;3.38;2.40;;;;;;;11.83;100.00;99699.03;5055203;28;20089;-80
2023/11/15 06:48:23;;;;;;;4.45;3.25;;;;;;;11.87;100.00;99694.63;5054571;28;20122;-83
2023/11/15 06:50:51;;;;;;;2.67;1.88;;;;;;;11.57;100.00;99625.88;5055275;28;20063;-81
2023/11/15 06:53:17;;;;;;;2.85;0.85;;;;;;;11.46;100.00;99611.19;5036583;28;20060;-85
2023/11/15 06:55:46;;;;;;;0.70;0.68;;;;;;;11.98;100.00;99713.69;5054704;28;20048;-81
2023/11/15 06:58:19;;;;;;;1.40;1.20;;;;;;;11.98;100.00;99716.31;5037272;28;20045;-80
2023/11/15 07:00:47;;;;;;;3.80;2.10;;;;;;;11.47;100.00;99619.06;5054739;28;20111;-81
2023/11/15 07:06:36;;;;;;;0.63;0.45;;;;;;;11.94;100.00;99690.09;5038677;28;20492;-81
2023/11/15 07:12:35;;;;;;;0.20;0.20;;;;;;;12.04;100.00;99668.91;5033219;28;20040;-83
2023/11/15 07:15:07;;;;;;;1.35;1.25;;;;;;;11.52;100.00;99577.81;5025901;28;20025;-78
2023/11/15 07:17:33;;;;;;;10.82;2.75;;;;;;;11.64;100.00;99602.13;5046350;28;20045;-78
2023/11/15 07:19:59;;;;;;;1.90;1.52;;;;;;;12.16;100.00;99688.84;5023803;28;20067;-78
2023/11/15 07:22:25;;;;;;;1.15;1.05;;;;;;;11.03;100.00;99589.09;5047770;28;20045;-78
2023/11/15 07:24:51;;;;;;;1.45;1.35;;;;;;;11.27;100.00;99563.34;5028725;28;20044;-78
2023/11/15 07:27:18;;;;;;;2.80;1.40;;;;;;;11.47;100.00;99590.16;5017835;28;20027;-76
2023/11/15 07:29:45;;;;;;;2.88;1.90;;;;;;;11.67;100.00;99615.22;5012338;28;20026;-79
2023/11/15 07:32:11;;;;;;;3.38;1.73;;;;;;;11.55;100.00;99621.53;5031735;28;20052;-82
2023/11/15 07:35:33;;;;;;;2.75;2.22;;;;;;;12.08;100.00;99703.00;5014163;28;20175;-81
2023/11/15 07:45:36;;;;;;;3.60;2.65;;;;;;;11.83;100.00;99671.88;5051099;28;20055;-77
2023/11/15 07:48:04;;;;;;;1.65;1.52;;;;;;;11.81;100.00;99684.16;5040014;28;20449;-77
2023/11/15 07:53:52;;;;;;;2.10;1.90;;;;;;;11.39;100.00;99644.56;5033557;28;20055;-76
2023/11/15 07:56:19;;;;;;;4.75;2.88;;;;;;;12.00;100.00;99727.69;5031093;28;20037;-77
2023/11/15 07:58:49;;;;;;;1.92;0.65;;;;;;;12.12;100.00;99738.91;5031804;28;20037;-76
2023/11/15 08:01:15;;;;;;;1.83;1.25;;;;;;;11.00;100.00;99570.75;5033242;28;20473;-76
2023/11/15 08:10:23;;;;;;;2.10;1.95;;;;;;;10.92;100.00;99719.63;5044093;28;20083;-77
2023/11/15 08:12:49;;;;;;;1.77;1.67;;;;;;;10.79;100.00;99674.28;5014142;28;20041;-76
2023/11/15 08:15:16;;;;;;;1.85;1.70;;;;;;;10.96;100.00;99690.69;5032476;28;20036;-75
2023/11/15 08:21:38;;;;;;;2.88;2.58;;;;;;;11.90;100.00;99836.53;5028877;28;20044;-82
2023/11/15 08:37:30;;;;;;;2.55;2.35;;;;;;;12.14;100.00;99829.16;5033013;28;20385;-80
2023/11/15 08:39:58;;;;;;;6.15;3.42;;;;;;;10.95;100.00;99633.81;5031124;28;20038;-81
2023/11/15 08:42:26;;;;;;;0.50;0.50;;;;;;;11.56;100.00;99697.69;5013025;28;20033;-80
2023/11/15 08:44:53;;;;;;;3.33;3.03;;;;;;;12.17;100.00;99772.09;5011874;28;20057;-77
2023/11/15 08:54:02;;;;;;;2.38;2.17;;;;;;;12.58;100.00;99777.53;5037781;28;20103;-78
2023/11/15 08:56:31;;;;;;;10.98;3.92;;;;;;;12.49;100.00;99773.31;5027612;28;20080;-80
2023/11/15 08:58:59;;;;;;;3.28;2.90;;;;;;;12.52;100.00;99762.72;5028754;28;20334;-78
2023/11/15 09:01:27;;;;;;;2.55;2.33;;;;;;;12.18;100.00;99654.63;5026524;28;20036;-81
2023/11/15 09:03:54;;;;;;;2.13;1.92;;;;;;;12.76;100.00;99748.25;5025916;28;20473;-81
2023/11/15 09:06:47;;;;;;;2.60;1.98;;;;;;;12.34;100.00;99761.31;5029322;28;20147;-78
2023/11/15 09:09:14;;;;;;;2.95;2.38;;;;;;;12.72;100.00;99770.25;5027849;28;20515;-79
2023/11/15 09:18:31;;;;;;;3.17;2.60;;;;;;;12.72;100.00;99735.19;5050010;28;20131;-78
2023/11/15 09:20:58;;;;;;;2.22;2.03;;;;;;;12.90;100.00;99716.38;5019245;28;20026;-77
2023/11/15 09:23:24;;;;;;;1.88;1.60;;;;;;;13.46;100.00;99808.28;5028888;28;20117;-77
2023/11/15 09:26:44;;;;;;;3.05;2.08;;;;;;;13.49;100.00;99813.50;5027535;28;20072;-80
2023/11/15 09:29:34;;;;;;;1.35;1.25;;;;;;;13.39;100.00;99826.03;5010784;28;20064;-77
2023/11/15 09:32:32;;;;;;;2.97;2.67;;;;;;;13.36;100.00;99818.16;5011173;28;20037;-78
2023/11/15 09:39:09;;;;;;;3.50;2.58;;;;;;;13.47;100.00;99795.09;5032357;28;20036;-79
2023/11/15 09:41:36;;;;;;;4.20;3.80;;;;;;;13.51;100.00;99767.75;5030804;28;20037;-77
2023/11/15 09:44:11;;;;;;;26.40;5.50;;;;;;;13.40;100.00;99737.28;5030740;28;20344;-77
2023/11/15 09:47:16;;;;;;;2.30;2.10;;;;;;;13.72;100.00;99773.47;5027734;28;20038;-78
2023/11/15 09:56:49;;;;;;;1.45;1.33;;;;;;;13.94;100.00;99724.56;5034865;28;20083;-80
2023/11/15 09:59:17;;;;;;;2.60;1.55;;;;;;;13.98;100.00;99688.44;5033928;28;20048;-77
2023/11/15 10:01:45;;;;;;;3.00;2.75;;;;;;;13.52;100.00;99587.63;5034264;28;20049;-76
2023/11/15 10:04:25;;;;;;;2.92;1.92;;;;;;;14.11;100.00;99667.84;5045609;28;20041;-78
2023/11/15 10:06:51;;;;;;;1.90;1.75;;;;;;;14.10;100.00;99700.44;5052674;28;20029;-80
2023/11/15 10:09:32;;;;;;;2.17;2.00;;;;;;;13.80;100.00;99630.88;5036815;28;20029;-81
2023/11/15 10:12:36;;;;;;;0.82;0.82;;;;;;;14.25;100.00;99715.84;5014512;28;20530;-77
2023/11/15 10:15:01;;;;;;;0.93;0.85;;;;;;;14.21;100.00;99711.59;5033836;28;20037;-79
2023/11/15 10:17:42;;;;;;;3.92;2.60;;;;;;;13.97;100.00;99681.41;5034149;28;20029;-80
2023/11/15 10:20:42;;;;;;;1.80;1.70;;;;;;;14.24;100.00;99695.66;5034303;28;20121;-79
2023/11/15 10:23:35;;;;;;;4.97;1.30;;;;;;;14.33;100.00;99723.59;5032716;28;20132;-79
2023/11/15 10:32:45;;;;;;;1.73;1.63;;;;;;;13.59;100.00;99601.50;5049678;28;20044;-77
2023/11/15 10:35:23;;;;;;;3.25;2.95;;;;;;;14.08;100.00;99697.81;5035934;28;20052;-77
2023/11/15 10:37:52;;;;;;;1.95;1.40;;;;;;;14.00;100.00;99720.91;5028764;28;20046;-78
2023/11/15 10:40:21;;;;;;;3.25;2.97;;;;;;;14.01;100.00;99711.22;5046318;28;20029;-77
2023/11/15 10:42:55;;;;;;;1.33;1.23;;;;;;;14.02;100.00;99684.78;5043680;28;20029;-78
2023/11/15 10:45:24;;;;;;;3.05;2.67;;;;;;;13.79;100.00;99671.31;5009849;28;20045;-80
2023/11/15 10:47:57;;;;;;;6.63;2.55;;;;;;;13.67;100.00;99647.00;5030424;28;20021;-76
2023/11/15 10:50:26;;;;;;;2.22;1.80;;;;;;;14.13;100.00;99713.53;5015109;28;20432;-76
2023/11/15 10:59:48;;;;;;;1.25;0.80;;;;;;;14.34;100.00;99735.88;5029209;28;20084;-77
2023/11/15 11:02:14;;;;;;;0.93;0.90;;;;;;;14.39;100.00;99733.97;5031124;28;20072;-78
2023/11/15 11:04:41;;;;;;;1.77;1.50;;;;;;;14.48;100.00;99732.84;5030060;28;20052;-76
2023/11/15 11:07:21;;;;;;;1.50;1.40;;;;;;;14.53;100.00;99723.88;5031561;28;20041;-78
2023/11/15 11:10:18;;;;;;;0.40;0.40;;;;;;;14.43;100.00;99726.84;5026502;28;20044;-77
2023/11/15 11:13:24;;;;;;;1.75;1.45;;;;;;;14.41;100.00;99694.34;5032594;28;20069;-77
2023/11/15 11:15:49;;;;;;;1.48;1.38;;;;;;;14.30;100.00;99608.38;5016890;28;20448;-77
2023/11/15 11:18:37;;;;;;;2.38;1.50;;;;;;;14.75;100.00;99649.41;5019317;28;20036;-76
2023/11/15 11:21:05;;;;;;;2.80;2.58;;;;;;;14.28;100.00;99667.41;5037998;28;20022;-78
2023/11/15 11:23:30;;;;;;;1.10;1.00;;;;;;;14.06;100.00;99619.63;5015863;28;20018;-78
2023/11/15 11:26:35;;;;;;;1.25;1.15;;;;;;;14.62;100.00;99719.31;5041044;28;20083;-78
2023/11/15 11:29:22;;;;;;;1.08;0.98;;;;;;;14.49;100.00;99756.59;4988917;28;20042;-77
2023/11/15 11:32:26;;;;;;;0.77;0.65;;;;;;;14.53;100.00;99770.56;5043790;28;20063;-78
2023/11/15 11:35:00;;;;;;;;;;;;;;;14.52;100.00;99769.69;5037004;28;20123;-79
2023/11/15 11:37:50;;;;;;;2.85;2.05;;;;;;;14.49;100.00;99774.19;5039732;28;19964;-78
2023/11/15 11:47:11;;;;;;;1.27;0.70;;;;;;;14.34;100.00;99712.09;5048490;28;20533;-77
2023/11/15 11:49:47;;;;;;;1.08;0.88;;;;;;;13.84;100.00;99646.59;5045939;28;20564;-78
2023/11/15 11:55:34;;;;;;;1.95;1.77;;;;;;;14.08;100.00;99668.81;5032555;28;20080;-76
2023/11/15 11:58:03;;;;;;;1.85;1.75;;;;;;;14.58;100.00;99750.19;5032343;28;20033;-76
2023/11/15 12:00:28;;;;;;;2.42;1.63;;;;;;;14.73;100.00;99751.56;5032951;28;20037;-75
2023/11/15 12:02:54;;;;;;;3.75;3.47;;;;;;;14.79;100.00;99732.91;5033789;28;20025;-76
2023/11/15 12:08:51;;;;;;;1.30;1.00;;;;;;;14.93;100.00;99717.50;5033555;28;20103;-77
2023/11/15 12:11:44;;;;;;;3.45;2.33;;;;;;;14.62;100.00;99704.34;5032821;28;20037;-76
2023/11/15 12:17:41;;;;;;;2.70;1.50;;;;;;;14.68;100.00;99682.16;5033325;28;20095;-78
2023/11/15 12:20:12;;;;;;;4.68;2.20;;;;;;;14.75;100.00;99678.47;5027307;28;20451;-77
2023/11/15 12:22:44;;;;;;;5.35;1.70;;;;;;;14.39;100.00;99595.84;5048770;28;20505;-77
2023/11/15 12:28:32;;;;;;;1.90;1.67;;;;;;;14.77;100.00;99684.53;5032501;28;20125;-77
2023/11/15 12:34:21;;;;;;;0.88;0.75;;;;;;;14.44;100.00;99699.53;5032486;28;20096;-76
2023/11/15 12:40:21;;;;;;;2.72;2.53;;;;;;;14.28;100.00;99699.94;5032751;28;20428;-77
2023/11/15 12:42:48;;;;;;;2.15;1.27;;;;;;;14.48;100.00;99712.59;5047399;28;20061;-77
2023/11/15 12:45:33;;;;;;;2.55;1.52;;;;;;;14.59;100.00;99716.78;5047307;28;20057;-76
2023/11/15 12:48:04;;;;;;;5.93;1.75;;;;;;;14.60;100.00;99694.72;5011784;28;20060;-76
2023/11/15 12:50:31;;;;;;;1.20;1.10;;;;;;;13.84;100.00;99636.03;5035129;28;20199;-76
2023/11/15 12:56:55;;;;;;;1.10;1.00;;;;;;;14.47;100.00;99745.19;5025458;28;20105;-78
2023/11/15 13:00:15;;;;;;;2.15;1.63;;;;;;;14.48;100.00;99735.50;5028756;28;20034;-77
2023/11/15 13:02:40;;;;;;;1.42;1.33;;;;;;;14.41;100.00;99740.06;5028406;28;20045;-76
2023/11/15 13:05:08;;;;;;;4.50;1.90;;;;;;;14.24;100.00;99686.88;5031732;28;20042;-78
2023/11/15 13:07:34;;;;;;;1.63;1.50;;;;;;;13.28;100.00;99493.41;5017275;28;20632;-77
2023/11/15 13:10:43;;;;;;;1.73;1.38;;;;;;;14.56;100.00;99737.06;5028118;28;20040;-76
2023/11/15 13:19:59;;;;;;;1.67;1.38;;;;;;;14.71;100.00;99735.75;5027351;28;20099;-76
2023/11/15 13:22:24;;;;;;;1.43;1.17;;;;;;;14.57;100.00;99751.97;5013129;28;20374;-77
2023/11/15 13:24:50;;;;;;;2.88;1.15;;;;;;;14.24;100.00;99677.19;5038339;28;20044;-76
2023/11/15 13:27:29;;;;;;;1.13;1.02;;;;;;;14.02;100.00;99645.22;5010800;28;20017;-77
2023/11/15 13:30:37;;;;;;;8.40;1.17;;;;;;;14.64;100.00;99759.75;5040496;28;20108;-76
2023/11/15 13:33:35;;;;;;;1.80;1.63;;;;;;;14.54;100.00;99762.63;5021730;28;20041;-77
2023/11/15 13:36:01;;;;;;;0.88;0.80;;;;;;;14.03;100.00;99668.06;5033559;28;20041;-78
2023/11/15 13:38:27;;;;;;;1.73;0.90;;;;;;;14.47;100.00;99761.03;5016002;28;20038;-78
2023/11/15 13:40:53;;;;;;;3.45;2.47;;;;;;;14.27;100.00;99718.47;5031675;28;20029;-77
2023/11/15 13:50:29;;;;;;;1.50;1.40;;;;;;;13.70;100.00;99661.88;5029504;28;20421;-77
2023/11/15 13:52:55;;;;;;;1.65;1.40;;;;;;;14.13;100.00;99746.06;5053027;28;20489;-77
2023/11/15 13:59:18;;;;;;;2.40;1.75;;;;;;;14.38;100.00;99763.91;5031983;28;20045;-76
2023/11/15 14:05:12;;;;;;;4.70;1.48;;;;;;;14.00;100.00;99706.84;5034471;28;20053;-78
2023/11/15 14:07:44;;;;;;;0.85;0.75;;;;;;;14.23;100.00;99757.25;5022169;28;20068;-77
2023/11/15 14:10:10;;;;;;;2.60;2.38;;;;;;;14.15;100.00;99738.13;5034288;28;20040;-78
2023/11/15 14:13:08;;;;;;;2.28;1.70;;;;;;;14.27;100.00;99777.38;5032094;28;20104;-76
2023/11/15 14:15:41;;;;;;;1.48;1.38;;;;;;;14.19;100.00;99789.03;5032067;28;20041;-77
2023/11/15 14:18:23;;;;;;;1.70;1.27;;;;;;;13.98;100.00;99727.09;5031821;28;20029;-78
2023/11/15 14:24:10;;;;;;;1.88;1.05;;;;;;;13.62;100.00;99703.38;5035430;28;20099;-77
2023/11/15 14:26:37;;;;;;;4.45;1.30;;;;;;;14.14;100.00;99800.56;5037750;28;20028;-78
2023/11/15 14:29:07;;;;;;;0.32;0.32;;;;;;;14.10;100.00;99791.00;5054492;28;20052;-77
2023/11/15 14:31:37;;;;;;;1.13;1.05;;;;;;;13.57;100.00;99728.97;5029778;28;20029;-77
2023/11/15 14:44:08;;;;;;;0.75;0.73;;;;;;;13.65;100.00;99779.75;5031480;28;20600;-76
2023/11/15 14:46:34;;;;;;;0.38;0.30;;;;;;;13.93;100.00;99814.28;5032310;28;20075;-77
2023/11/15 14:49:03;;;;;;;0.57;0.57;;;;;;;14.07;100.00;99853.50;5029732;28;20132;-76
2023/11/15 14:51:29;;;;;;;0.50;0.40;;;;;;;13.35;100.00;99718.94;5034863;28;20120;-76
2023/11/15 14:53:55;;;;;;;0.50;0.43;;;;;;;13.45;100.00;99723.09;5033377;28;20022;-77
2023/11/15 14:56:22;;;;;;;1.50;0.93;;;;;;;14.12;100.00;99833.19;5029331;28;20541;-77
2023/11/15 14:58:51;;;;;;;0.80;0.80;;;;;;;13.36;100.00;99698.72;5046057;28;20096;-77
2023/11/15 15:02:00;;;;;;;2.13;1.33;;;;;;;14.09;100.00;99813.03;5028950;28;20129;-77
2023/11/15 15:04:33;;;;;;;0.82;0.80;;;;;;;13.99;100.00;99800.94;5033570;28;20393;-78
2023/11/15 15:07:37;;;;;;;1.17;1.08;;;;;;;13.96;100.00;99806.28;5032962;28;20090;-76
2023/11/15 15:10:05;;;;;;;0.30;0.20;;;;;;;13.54;100.00;99715.88;5030012;28;20482;-78
2023/11/15 15:12:31;;;;;;;0.38;0.38;;;;;;;13.98;100.00;99809.75;5030323;28;20080;-77
2023/11/15 15:14:57;;;;;;;0.77;0.60;;;;;;;12.10;100.00;99517.16;5030364;28;20029;-77
2023/11/15 15:17:39;;;;;;;0.77;0.77;;;;;;;13.91;100.00;99830.13;5012564;28;20065;-77
2023/11/15 15:20:08;;;;;;;0.77;0.77;;;;;;;13.60;100.00;99766.69;5013953;28;20175;-77
2023/11/15 15:22:34;;;;;;;1.30;1.05;;;;;;;14.03;100.00;99846.59;5014693;28;20037;-78
2023/11/15 15:25:02;;;;;;;0.20;0.20;;;;;;;13.77;100.00;99795.31;5016683;28;20136;-77
2023/11/15 15:27:28;;;;;;;1.30;1.20;;;;;;;13.12;100.00;99672.00;5026673;28;20096;-78